sensor_id;sensor_type;location;lat;lon;timestamp;P1;P2;P0
69224;PMS1003;56333;51.306;17.056;2023-06-10T00:00:45;10.80;9.60;
69224;PMS1003;56333;51.306;17.056;2023-06-10T00:02:34;12.20;10.50;
69224;PMS1003;56333;51.306;17.056;2023-06-10T00:04:04;11.90;9.60;
69224;PMS1003;56333;51.306;17.056;2023-06-10T00:05:33;10.90;9.80;
69224;PMS1003;56333;51.306;17.056;2023-06-10T00:07:04;11.40;10.20;
69224;PMS1003;56333;51.306;17.056;2023-06-10T00:08:34;10.50;9.40;
69224;PMS1003;56333;51.306;17.056;2023-06-10T00:10:04;10.90;9.50;
69224;PMS1003;56333;51.306;17.056;2023-06-10T00:11:34;11.00;9.90;
69224;PMS1003;56333;51.306;17.056;2023-06-10T00:13:03;10.60;9.50;
69224;PMS1003;56333;51.306;17.056;2023-06-10T00:14:34;13.50;10.10;
69224;PMS1003;56333;51.306;17.056;2023-06-10T00:16:04;10.40;9.40;
69224;PMS1003;56333;51.306;17.056;2023-06-10T00:17:33;10.80;9.20;
69224;PMS1003;56333;51.306;17.056;2023-06-10T00:20:32;10.50;9.40;
69224;PMS1003;56333;51.306;17.056;2023-06-10T00:22:05;10.30;9.30;
69224;PMS1003;56333;51.306;17.056;2023-06-10T00:23:35;10.50;9.50;
69224;PMS1003;56333;51.306;17.056;2023-06-10T00:25:06;10.20;9.20;
69224;PMS1003;56333;51.306;17.056;2023-06-10T00:26:36;11.10;9.80;
69224;PMS1003;56333;51.306;17.056;2023-06-10T00:28:05;9.90;9.00;
69224;PMS1003;56333;51.306;17.056;2023-06-10T00:29:34;10.00;9.10;
69224;PMS1003;56333;51.306;17.056;2023-06-10T00:31:05;11.90;10.10;
69224;PMS1003;56333;51.306;17.056;2023-06-10T00:32:34;10.40;9.30;
69224;PMS1003;56333;51.306;17.056;2023-06-10T00:34:03;10.30;9.30;
69224;PMS1003;56333;51.306;17.056;2023-06-10T00:35:33;10.20;9.10;
69224;PMS1003;56333;51.306;17.056;2023-06-10T00:37:02;9.60;8.70;
69224;PMS1003;56333;51.306;17.056;2023-06-10T00:38:31;10.10;9.10;
69224;PMS1003;56333;51.306;17.056;2023-06-10T00:40:02;9.90;8.90;
69224;PMS1003;56333;51.306;17.056;2023-06-10T00:41:32;10.10;9.20;
69224;PMS1003;56333;51.306;17.056;2023-06-10T00:43:00;10.20;9.20;
69224;PMS1003;56333;51.306;17.056;2023-06-10T00:44:29;12.80;9.50;
69224;PMS1003;56333;51.306;17.056;2023-06-10T00:45:58;11.00;9.10;
69224;PMS1003;56333;51.306;17.056;2023-06-10T00:47:30;9.40;8.50;
69224;PMS1003;56333;51.306;17.056;2023-06-10T00:49:01;9.90;8.50;
69224;PMS1003;56333;51.306;17.056;2023-06-10T00:50:29;9.50;8.60;
69224;PMS1003;56333;51.306;17.056;2023-06-10T00:51:58;9.60;8.60;
69224;PMS1003;56333;51.306;17.056;2023-06-10T00:53:27;10.10;9.10;
69224;PMS1003;56333;51.306;17.056;2023-06-10T00:54:57;10.20;9.20;
69224;PMS1003;56333;51.306;17.056;2023-06-10T00:56:26;11.70;10.60;
69224;PMS1003;56333;51.306;17.056;2023-06-10T00:57:55;13.00;10.80;
69224;PMS1003;56333;51.306;17.056;2023-06-10T00:59:26;11.60;10.50;
69224;PMS1003;56333;51.306;17.056;2023-06-10T01:00:55;11.20;10.10;
69224;PMS1003;56333;51.306;17.056;2023-06-10T01:02:27;10.60;9.60;
69224;PMS1003;56333;51.306;17.056;2023-06-10T01:03:58;9.70;8.70;
69224;PMS1003;56333;51.306;17.056;2023-06-10T01:05:30;10.30;9.20;
69224;PMS1003;56333;51.306;17.056;2023-06-10T01:07:08;9.40;8.40;
69224;PMS1003;56333;51.306;17.056;2023-06-10T01:08:49;11.00;9.80;
69224;PMS1003;56333;51.306;17.056;2023-06-10T01:10:29;10.50;9.40;
69224;PMS1003;56333;51.306;17.056;2023-06-10T01:12:08;11.40;10.20;
69224;PMS1003;56333;51.306;17.056;2023-06-10T01:13:41;10.80;9.80;
69224;PMS1003;56333;51.306;17.056;2023-06-10T01:15:11;11.00;10.00;
69224;PMS1003;56333;51.306;17.056;2023-06-10T01:16:40;11.30;10.20;
69224;PMS1003;56333;51.306;17.056;2023-06-10T01:18:11;11.00;10.00;
69224;PMS1003;56333;51.306;17.056;2023-06-10T01:21:18;11.00;9.90;
69224;PMS1003;56333;51.306;17.056;2023-06-10T01:22:50;11.00;10.00;
69224;PMS1003;56333;51.306;17.056;2023-06-10T01:24:20;11.40;10.30;
69224;PMS1003;56333;51.306;17.056;2023-06-10T01:25:55;10.20;9.20;
69224;PMS1003;56333;51.306;17.056;2023-06-10T01:27:28;10.50;9.40;
69224;PMS1003;56333;51.306;17.056;2023-06-10T01:29:07;10.70;9.60;
69224;PMS1003;56333;51.306;17.056;2023-06-10T01:30:45;10.10;9.10;
69224;PMS1003;56333;51.306;17.056;2023-06-10T01:32:21;11.30;10.20;
69224;PMS1003;56333;51.306;17.056;2023-06-10T01:33:56;11.40;10.30;
69224;PMS1003;56333;51.306;17.056;2023-06-10T01:35:26;12.60;11.40;
69224;PMS1003;56333;51.306;17.056;2023-06-10T01:36:57;12.60;11.40;
69224;PMS1003;56333;51.306;17.056;2023-06-10T01:38:27;12.40;11.00;
69224;PMS1003;56333;51.306;17.056;2023-06-10T01:40:00;13.30;12.00;
69224;PMS1003;56333;51.306;17.056;2023-06-10T01:41:32;13.00;11.80;
69224;PMS1003;56333;51.306;17.056;2023-06-10T01:43:01;14.20;12.70;
69224;PMS1003;56333;51.306;17.056;2023-06-10T01:44:29;13.80;12.50;
69224;PMS1003;56333;51.306;17.056;2023-06-10T01:45:58;13.60;12.20;
69224;PMS1003;56333;51.306;17.056;2023-06-10T01:47:27;11.70;10.60;
69224;PMS1003;56333;51.306;17.056;2023-06-10T01:48:56;12.00;10.90;
69224;PMS1003;56333;51.306;17.056;2023-06-10T01:50:24;12.70;11.50;
69224;PMS1003;56333;51.306;17.056;2023-06-10T01:51:53;12.40;10.90;
69224;PMS1003;56333;51.306;17.056;2023-06-10T01:53:22;13.30;11.80;
69224;PMS1003;56333;51.306;17.056;2023-06-10T01:54:52;12.40;11.10;
69224;PMS1003;56333;51.306;17.056;2023-06-10T01:56:20;13.60;11.90;
69224;PMS1003;56333;51.306;17.056;2023-06-10T01:57:49;14.50;13.00;
69224;PMS1003;56333;51.306;17.056;2023-06-10T01:59:18;14.60;12.80;
69224;PMS1003;56333;51.306;17.056;2023-06-10T02:00:48;15.10;13.40;
69224;PMS1003;56333;51.306;17.056;2023-06-10T02:02:17;13.70;12.30;
69224;PMS1003;56333;51.306;17.056;2023-06-10T02:03:47;14.90;13.20;
69224;PMS1003;56333;51.306;17.056;2023-06-10T02:05:16;14.90;13.30;
69224;PMS1003;56333;51.306;17.056;2023-06-10T02:06:45;14.40;12.90;
69224;PMS1003;56333;51.306;17.056;2023-06-10T02:08:14;15.50;13.90;
69224;PMS1003;56333;51.306;17.056;2023-06-10T02:09:43;16.10;14.50;
69224;PMS1003;56333;51.306;17.056;2023-06-10T02:11:11;16.60;14.90;
69224;PMS1003;56333;51.306;17.056;2023-06-10T02:12:40;16.10;14.40;
69224;PMS1003;56333;51.306;17.056;2023-06-10T02:14:09;15.90;14.20;
69224;PMS1003;56333;51.306;17.056;2023-06-10T02:15:38;16.30;14.60;
69224;PMS1003;56333;51.306;17.056;2023-06-10T02:17:07;15.70;14.00;
69224;PMS1003;56333;51.306;17.056;2023-06-10T02:18:42;14.30;12.80;
69224;PMS1003;56333;51.306;17.056;2023-06-10T02:20:13;15.20;13.70;
69224;PMS1003;56333;51.306;17.056;2023-06-10T02:21:42;13.70;12.30;
69224;PMS1003;56333;51.306;17.056;2023-06-10T02:23:11;15.20;13.60;
69224;PMS1003;56333;51.306;17.056;2023-06-10T02:24:40;13.80;12.50;
69224;PMS1003;56333;51.306;17.056;2023-06-10T02:26:08;14.20;12.70;
69224;PMS1003;56333;51.306;17.056;2023-06-10T02:27:37;15.50;13.70;
69224;PMS1003;56333;51.306;17.056;2023-06-10T02:29:06;15.20;13.70;
69224;PMS1003;56333;51.306;17.056;2023-06-10T02:30:34;14.70;13.30;
69224;PMS1003;56333;51.306;17.056;2023-06-10T02:32:04;15.00;13.00;
69224;PMS1003;56333;51.306;17.056;2023-06-10T02:33:35;14.60;13.10;
69224;PMS1003;56333;51.306;17.056;2023-06-10T02:35:07;14.60;13.10;
69224;PMS1003;56333;51.306;17.056;2023-06-10T02:36:39;14.50;13.10;
69224;PMS1003;56333;51.306;17.056;2023-06-10T02:38:07;13.80;12.40;
69224;PMS1003;56333;51.306;17.056;2023-06-10T02:39:37;13.80;12.40;
69224;PMS1003;56333;51.306;17.056;2023-06-10T02:41:09;13.00;11.80;
69224;PMS1003;56333;51.306;17.056;2023-06-10T02:42:37;13.90;12.50;
69224;PMS1003;56333;51.306;17.056;2023-06-10T02:44:07;14.20;12.70;
69224;PMS1003;56333;51.306;17.056;2023-06-10T02:45:36;13.70;12.20;
69224;PMS1003;56333;51.306;17.056;2023-06-10T02:47:06;13.30;11.90;
69224;PMS1003;56333;51.306;17.056;2023-06-10T02:48:43;13.40;12.00;
69224;PMS1003;56333;51.306;17.056;2023-06-10T02:50:15;14.30;12.90;
69224;PMS1003;56333;51.306;17.056;2023-06-10T02:52:00;14.10;12.80;
69224;PMS1003;56333;51.306;17.056;2023-06-10T02:53:30;14.00;12.60;
69224;PMS1003;56333;51.306;17.056;2023-06-10T02:55:04;14.30;12.80;
69224;PMS1003;56333;51.306;17.056;2023-06-10T02:56:34;13.70;12.30;
69224;PMS1003;56333;51.306;17.056;2023-06-10T02:58:04;14.50;12.50;
69224;PMS1003;56333;51.306;17.056;2023-06-10T02:59:33;13.40;12.00;
69224;PMS1003;56333;51.306;17.056;2023-06-10T03:01:03;13.70;12.40;
69224;PMS1003;56333;51.306;17.056;2023-06-10T03:02:39;14.00;12.60;
69224;PMS1003;56333;51.306;17.056;2023-06-10T03:04:08;13.80;12.40;
69224;PMS1003;56333;51.306;17.056;2023-06-10T03:05:40;13.90;12.60;
69224;PMS1003;56333;51.306;17.056;2023-06-10T03:07:09;15.20;13.60;
69224;PMS1003;56333;51.306;17.056;2023-06-10T03:08:38;14.30;13.00;
69224;PMS1003;56333;51.306;17.056;2023-06-10T03:10:11;15.10;13.50;
69224;PMS1003;56333;51.306;17.056;2023-06-10T03:11:40;14.30;12.80;
69224;PMS1003;56333;51.306;17.056;2023-06-10T03:13:09;13.90;12.50;
69224;PMS1003;56333;51.306;17.056;2023-06-10T03:14:38;14.00;12.60;
69224;PMS1003;56333;51.306;17.056;2023-06-10T03:16:08;15.00;13.40;
69224;PMS1003;56333;51.306;17.056;2023-06-10T03:17:38;15.00;13.10;
69224;PMS1003;56333;51.306;17.056;2023-06-10T03:19:07;14.20;12.70;
69224;PMS1003;56333;51.306;17.056;2023-06-10T03:20:35;14.50;13.10;
69224;PMS1003;56333;51.306;17.056;2023-06-10T03:22:12;15.20;13.70;
69224;PMS1003;56333;51.306;17.056;2023-06-10T03:23:49;13.60;12.30;
69224;PMS1003;56333;51.306;17.056;2023-06-10T03:25:18;14.20;12.70;
69224;PMS1003;56333;51.306;17.056;2023-06-10T03:26:48;15.50;14.00;
69224;PMS1003;56333;51.306;17.056;2023-06-10T03:28:18;15.20;13.70;
69224;PMS1003;56333;51.306;17.056;2023-06-10T03:29:47;15.60;14.00;
69224;PMS1003;56333;51.306;17.056;2023-06-10T03:31:17;15.20;13.80;
69224;PMS1003;56333;51.306;17.056;2023-06-10T03:32:47;16.50;14.90;
69224;PMS1003;56333;51.306;17.056;2023-06-10T03:34:17;15.30;13.80;
69224;PMS1003;56333;51.306;17.056;2023-06-10T03:35:46;15.50;14.10;
69224;PMS1003;56333;51.306;17.056;2023-06-10T03:37:15;15.90;14.40;
69224;PMS1003;56333;51.306;17.056;2023-06-10T03:38:44;15.70;14.10;
69224;PMS1003;56333;51.306;17.056;2023-06-10T03:40:13;15.20;13.70;
69224;PMS1003;56333;51.306;17.056;2023-06-10T03:41:45;15.80;14.10;
69224;PMS1003;56333;51.306;17.056;2023-06-10T03:43:13;16.00;14.40;
69224;PMS1003;56333;51.306;17.056;2023-06-10T03:44:43;15.40;14.00;
69224;PMS1003;56333;51.306;17.056;2023-06-10T03:46:12;15.80;14.20;
69224;PMS1003;56333;51.306;17.056;2023-06-10T03:47:41;15.80;14.20;
69224;PMS1003;56333;51.306;17.056;2023-06-10T03:50:41;15.90;14.40;
69224;PMS1003;56333;51.306;17.056;2023-06-10T03:52:10;15.60;14.10;
69224;PMS1003;56333;51.306;17.056;2023-06-10T03:53:39;15.60;14.10;
69224;PMS1003;56333;51.306;17.056;2023-06-10T03:55:10;16.10;14.60;
69224;PMS1003;56333;51.306;17.056;2023-06-10T03:56:42;15.40;14.00;
69224;PMS1003;56333;51.306;17.056;2023-06-10T03:58:11;15.80;14.30;
69224;PMS1003;56333;51.306;17.056;2023-06-10T03:59:41;15.60;14.10;
69224;PMS1003;56333;51.306;17.056;2023-06-10T04:01:10;15.70;14.10;
69224;PMS1003;56333;51.306;17.056;2023-06-10T04:02:39;16.70;14.90;
69224;PMS1003;56333;51.306;17.056;2023-06-10T04:04:13;15.50;14.10;
69224;PMS1003;56333;51.306;17.056;2023-06-10T04:05:44;17.00;15.50;
69224;PMS1003;56333;51.306;17.056;2023-06-10T04:07:12;22.70;20.30;
69224;PMS1003;56333;51.306;17.056;2023-06-10T04:08:41;18.90;16.10;
69224;PMS1003;56333;51.306;17.056;2023-06-10T04:10:12;16.00;14.30;
69224;PMS1003;56333;51.306;17.056;2023-06-10T04:11:41;16.90;14.90;
69224;PMS1003;56333;51.306;17.056;2023-06-10T04:13:10;16.70;15.00;
69224;PMS1003;56333;51.306;17.056;2023-06-10T04:14:46;15.90;14.30;
69224;PMS1003;56333;51.306;17.056;2023-06-10T04:16:16;16.50;14.90;
69224;PMS1003;56333;51.306;17.056;2023-06-10T04:17:46;17.30;15.60;
69224;PMS1003;56333;51.306;17.056;2023-06-10T04:19:17;17.70;16.00;
69224;PMS1003;56333;51.306;17.056;2023-06-10T04:20:46;17.50;15.70;
69224;PMS1003;56333;51.306;17.056;2023-06-10T04:22:14;16.40;14.80;
69224;PMS1003;56333;51.306;17.056;2023-06-10T04:23:44;16.90;14.90;
69224;PMS1003;56333;51.306;17.056;2023-06-10T04:25:13;16.60;15.00;
69224;PMS1003;56333;51.306;17.056;2023-06-10T04:26:41;16.50;14.90;
69224;PMS1003;56333;51.306;17.056;2023-06-10T04:28:10;16.70;14.90;
69224;PMS1003;56333;51.306;17.056;2023-06-10T04:29:41;16.20;14.60;
69224;PMS1003;56333;51.306;17.056;2023-06-10T04:31:09;17.50;15.20;
69224;PMS1003;56333;51.306;17.056;2023-06-10T04:32:39;16.30;14.80;
69224;PMS1003;56333;51.306;17.056;2023-06-10T04:34:12;16.90;14.90;
69224;PMS1003;56333;51.306;17.056;2023-06-10T04:35:40;17.00;15.40;
69224;PMS1003;56333;51.306;17.056;2023-06-10T04:37:11;17.10;15.40;
69224;PMS1003;56333;51.306;17.056;2023-06-10T04:38:40;16.10;14.60;
69224;PMS1003;56333;51.306;17.056;2023-06-10T04:40:11;16.80;15.20;
69224;PMS1003;56333;51.306;17.056;2023-06-10T04:41:42;16.50;14.80;
69224;PMS1003;56333;51.306;17.056;2023-06-10T04:43:12;16.90;15.30;
69224;PMS1003;56333;51.306;17.056;2023-06-10T04:44:44;17.40;15.80;
69224;PMS1003;56333;51.306;17.056;2023-06-10T04:46:13;18.00;16.10;
69224;PMS1003;56333;51.306;17.056;2023-06-10T04:47:43;17.40;15.80;
69224;PMS1003;56333;51.306;17.056;2023-06-10T04:49:12;16.70;14.90;
69224;PMS1003;56333;51.306;17.056;2023-06-10T04:50:41;16.90;15.30;
69224;PMS1003;56333;51.306;17.056;2023-06-10T04:52:10;17.10;15.60;
69224;PMS1003;56333;51.306;17.056;2023-06-10T04:53:40;17.10;15.50;
69224;PMS1003;56333;51.306;17.056;2023-06-10T04:55:10;16.90;15.30;
69224;PMS1003;56333;51.306;17.056;2023-06-10T04:56:39;16.80;15.30;
69224;PMS1003;56333;51.306;17.056;2023-06-10T04:58:08;17.10;15.50;
69224;PMS1003;56333;51.306;17.056;2023-06-10T04:59:37;17.30;15.60;
69224;PMS1003;56333;51.306;17.056;2023-06-10T05:01:05;16.70;15.20;
69224;PMS1003;56333;51.306;17.056;2023-06-10T05:02:34;16.20;14.80;
69224;PMS1003;56333;51.306;17.056;2023-06-10T05:04:04;16.40;14.90;
69224;PMS1003;56333;51.306;17.056;2023-06-10T05:05:33;16.20;14.70;
69224;PMS1003;56333;51.306;17.056;2023-06-10T05:07:02;16.70;15.00;
69224;PMS1003;56333;51.306;17.056;2023-06-10T05:08:32;16.50;14.90;
69224;PMS1003;56333;51.306;17.056;2023-06-10T05:10:01;16.10;14.60;
69224;PMS1003;56333;51.306;17.056;2023-06-10T05:11:31;16.10;14.60;
69224;PMS1003;56333;51.306;17.056;2023-06-10T05:13:00;17.10;15.50;
69224;PMS1003;56333;51.306;17.056;2023-06-10T05:14:29;16.20;14.60;
69224;PMS1003;56333;51.306;17.056;2023-06-10T05:15:58;17.20;15.70;
69224;PMS1003;56333;51.306;17.056;2023-06-10T05:17:27;16.50;14.90;
69224;PMS1003;56333;51.306;17.056;2023-06-10T05:18:56;17.70;16.00;
69224;PMS1003;56333;51.306;17.056;2023-06-10T05:20:27;16.90;15.10;
69224;PMS1003;56333;51.306;17.056;2023-06-10T05:21:56;16.80;15.10;
69224;PMS1003;56333;51.306;17.056;2023-06-10T05:23:25;16.50;15.10;
69224;PMS1003;56333;51.306;17.056;2023-06-10T05:24:54;16.50;14.80;
69224;PMS1003;56333;51.306;17.056;2023-06-10T05:26:23;17.40;15.60;
69224;PMS1003;56333;51.306;17.056;2023-06-10T05:27:52;17.70;15.90;
69224;PMS1003;56333;51.306;17.056;2023-06-10T05:29:21;17.30;15.50;
69224;PMS1003;56333;51.306;17.056;2023-06-10T05:30:50;17.90;16.10;
69224;PMS1003;56333;51.306;17.056;2023-06-10T05:32:19;17.50;15.60;
69224;PMS1003;56333;51.306;17.056;2023-06-10T05:33:48;17.20;15.50;
69224;PMS1003;56333;51.306;17.056;2023-06-10T05:35:17;17.80;16.10;
69224;PMS1003;56333;51.306;17.056;2023-06-10T05:36:45;17.40;15.60;
69224;PMS1003;56333;51.306;17.056;2023-06-10T05:38:14;17.70;15.90;
69224;PMS1003;56333;51.306;17.056;2023-06-10T05:39:43;18.50;16.60;
69224;PMS1003;56333;51.306;17.056;2023-06-10T05:41:12;18.80;16.30;
69224;PMS1003;56333;51.306;17.056;2023-06-10T05:42:41;17.50;15.70;
69224;PMS1003;56333;51.306;17.056;2023-06-10T05:44:10;17.40;15.50;
69224;PMS1003;56333;51.306;17.056;2023-06-10T05:45:38;16.80;15.00;
69224;PMS1003;56333;51.306;17.056;2023-06-10T05:47:08;17.20;15.40;
69224;PMS1003;56333;51.306;17.056;2023-06-10T05:48:37;17.50;15.10;
69224;PMS1003;56333;51.306;17.056;2023-06-10T05:50:07;17.20;15.40;
69224;PMS1003;56333;51.306;17.056;2023-06-10T05:51:36;17.20;15.60;
69224;PMS1003;56333;51.306;17.056;2023-06-10T05:53:06;17.20;15.40;
69224;PMS1003;56333;51.306;17.056;2023-06-10T05:54:40;17.60;15.70;
69224;PMS1003;56333;51.306;17.056;2023-06-10T05:56:09;18.10;16.10;
69224;PMS1003;56333;51.306;17.056;2023-06-10T05:57:38;17.30;15.70;
69224;PMS1003;56333;51.306;17.056;2023-06-10T05:59:08;16.90;15.30;
69224;PMS1003;56333;51.306;17.056;2023-06-10T06:00:37;17.10;15.40;
69224;PMS1003;56333;51.306;17.056;2023-06-10T06:02:06;17.00;15.40;
69224;PMS1003;56333;51.306;17.056;2023-06-10T06:03:36;16.20;14.60;
69224;PMS1003;56333;51.306;17.056;2023-06-10T06:05:06;16.50;14.70;
69224;PMS1003;56333;51.306;17.056;2023-06-10T06:06:38;15.80;14.30;
69224;PMS1003;56333;51.306;17.056;2023-06-10T06:08:07;17.30;15.50;
69224;PMS1003;56333;51.306;17.056;2023-06-10T06:09:36;17.40;15.60;
69224;PMS1003;56333;51.306;17.056;2023-06-10T06:11:05;17.60;15.90;
69224;PMS1003;56333;51.306;17.056;2023-06-10T06:12:34;18.10;16.30;
69224;PMS1003;56333;51.306;17.056;2023-06-10T06:14:03;17.90;16.10;
69224;PMS1003;56333;51.306;17.056;2023-06-10T06:15:32;17.70;16.00;
69224;PMS1003;56333;51.306;17.056;2023-06-10T06:17:01;17.20;15.60;
69224;PMS1003;56333;51.306;17.056;2023-06-10T06:18:31;17.50;15.90;
69224;PMS1003;56333;51.306;17.056;2023-06-10T06:20:00;17.50;15.70;
69224;PMS1003;56333;51.306;17.056;2023-06-10T06:21:29;17.00;15.40;
69224;PMS1003;56333;51.306;17.056;2023-06-10T06:22:59;16.10;14.60;
69224;PMS1003;56333;51.306;17.056;2023-06-10T06:24:28;17.20;15.40;
69224;PMS1003;56333;51.306;17.056;2023-06-10T06:25:56;17.10;15.40;
69224;PMS1003;56333;51.306;17.056;2023-06-10T06:27:26;16.60;15.00;
69224;PMS1003;56333;51.306;17.056;2023-06-10T06:28:56;16.90;15.40;
69224;PMS1003;56333;51.306;17.056;2023-06-10T06:30:25;17.90;16.00;
69224;PMS1003;56333;51.306;17.056;2023-06-10T06:31:54;17.90;16.30;
69224;PMS1003;56333;51.306;17.056;2023-06-10T06:33:23;18.90;17.20;
69224;PMS1003;56333;51.306;17.056;2023-06-10T06:34:53;18.30;16.70;
69224;PMS1003;56333;51.306;17.056;2023-06-10T06:36:21;18.70;16.90;
69224;PMS1003;56333;51.306;17.056;2023-06-10T06:37:50;19.20;17.30;
69224;PMS1003;56333;51.306;17.056;2023-06-10T06:39:23;18.20;16.50;
69224;PMS1003;56333;51.306;17.056;2023-06-10T06:40:51;18.20;16.40;
69224;PMS1003;56333;51.306;17.056;2023-06-10T06:42:20;18.10;16.40;
69224;PMS1003;56333;51.306;17.056;2023-06-10T06:44:30;18.20;16.50;
69224;PMS1003;56333;51.306;17.056;2023-06-10T06:46:00;18.40;16.70;
69224;PMS1003;56333;51.306;17.056;2023-06-10T06:47:29;18.30;16.50;
69224;PMS1003;56333;51.306;17.056;2023-06-10T06:48:58;17.90;16.00;
69224;PMS1003;56333;51.306;17.056;2023-06-10T06:50:26;18.10;16.40;
69224;PMS1003;56333;51.306;17.056;2023-06-10T06:51:56;18.30;16.60;
69224;PMS1003;56333;51.306;17.056;2023-06-10T06:53:25;18.30;16.70;
69224;PMS1003;56333;51.306;17.056;2023-06-10T06:54:54;18.50;16.80;
69224;PMS1003;56333;51.306;17.056;2023-06-10T06:56:24;18.70;17.10;
69224;PMS1003;56333;51.306;17.056;2023-06-10T06:57:54;17.80;16.20;
69224;PMS1003;56333;51.306;17.056;2023-06-10T06:59:26;18.50;16.80;
69224;PMS1003;56333;51.306;17.056;2023-06-10T07:00:54;17.80;16.20;
69224;PMS1003;56333;51.306;17.056;2023-06-10T07:02:23;17.70;16.00;
69224;PMS1003;56333;51.306;17.056;2023-06-10T07:03:53;18.80;17.00;
69224;PMS1003;56333;51.306;17.056;2023-06-10T07:05:22;17.30;15.50;
69224;PMS1003;56333;51.306;17.056;2023-06-10T07:06:52;17.80;16.00;
69224;PMS1003;56333;51.306;17.056;2023-06-10T07:08:21;19.50;17.60;
69224;PMS1003;56333;51.306;17.056;2023-06-10T07:09:49;18.40;16.70;
69224;PMS1003;56333;51.306;17.056;2023-06-10T07:11:19;17.90;16.00;
69224;PMS1003;56333;51.306;17.056;2023-06-10T07:12:47;17.60;15.90;
69224;PMS1003;56333;51.306;17.056;2023-06-10T07:14:16;19.30;17.20;
69224;PMS1003;56333;51.306;17.056;2023-06-10T07:15:45;19.10;17.30;
69224;PMS1003;56333;51.306;17.056;2023-06-10T07:17:15;20.30;18.40;
69224;PMS1003;56333;51.306;17.056;2023-06-10T07:18:45;19.30;17.50;
69224;PMS1003;56333;51.306;17.056;2023-06-10T07:20:15;18.60;17.00;
69224;PMS1003;56333;51.306;17.056;2023-06-10T07:21:45;19.90;18.00;
69224;PMS1003;56333;51.306;17.056;2023-06-10T07:23:17;19.70;17.80;
69224;PMS1003;56333;51.306;17.056;2023-06-10T07:24:46;20.10;18.10;
69224;PMS1003;56333;51.306;17.056;2023-06-10T07:27:45;18.80;17.10;
69224;PMS1003;56333;51.306;17.056;2023-06-10T07:29:15;20.10;18.30;
69224;PMS1003;56333;51.306;17.056;2023-06-10T07:30:44;22.10;19.70;
69224;PMS1003;56333;51.306;17.056;2023-06-10T07:32:13;20.40;18.60;
69224;PMS1003;56333;51.306;17.056;2023-06-10T07:33:43;20.50;18.50;
69224;PMS1003;56333;51.306;17.056;2023-06-10T07:35:13;20.20;18.40;
69224;PMS1003;56333;51.306;17.056;2023-06-10T07:36:42;21.10;19.20;
69224;PMS1003;56333;51.306;17.056;2023-06-10T07:38:12;21.90;20.00;
69224;PMS1003;56333;51.306;17.056;2023-06-10T07:39:40;21.60;19.50;
69224;PMS1003;56333;51.306;17.056;2023-06-10T07:41:11;22.00;20.00;
69224;PMS1003;56333;51.306;17.056;2023-06-10T07:42:40;22.40;20.00;
69224;PMS1003;56333;51.306;17.056;2023-06-10T07:44:08;22.50;19.30;
69224;PMS1003;56333;51.306;17.056;2023-06-10T07:45:37;21.90;20.00;
69224;PMS1003;56333;51.306;17.056;2023-06-10T07:47:08;24.20;21.80;
69224;PMS1003;56333;51.306;17.056;2023-06-10T07:48:37;23.50;21.00;
69224;PMS1003;56333;51.306;17.056;2023-06-10T07:50:07;22.70;20.60;
69224;PMS1003;56333;51.306;17.056;2023-06-10T07:51:37;23.20;21.00;
69224;PMS1003;56333;51.306;17.056;2023-06-10T07:53:06;23.00;20.90;
69224;PMS1003;56333;51.306;17.056;2023-06-10T07:54:35;21.90;19.90;
69224;PMS1003;56333;51.306;17.056;2023-06-10T07:56:04;21.50;19.60;
69224;PMS1003;56333;51.306;17.056;2023-06-10T07:57:32;22.20;20.20;
69224;PMS1003;56333;51.306;17.056;2023-06-10T07:59:02;20.70;18.70;
69224;PMS1003;56333;51.306;17.056;2023-06-10T08:00:31;20.90;19.10;
69224;PMS1003;56333;51.306;17.056;2023-06-10T08:02:00;20.70;18.70;
69224;PMS1003;56333;51.306;17.056;2023-06-10T08:03:30;20.40;18.70;
69224;PMS1003;56333;51.306;17.056;2023-06-10T08:05:00;21.40;19.50;
69224;PMS1003;56333;51.306;17.056;2023-06-10T08:06:29;21.60;19.50;
69224;PMS1003;56333;51.306;17.056;2023-06-10T08:07:58;20.40;18.50;
69224;PMS1003;56333;51.306;17.056;2023-06-10T08:09:28;22.60;20.50;
69224;PMS1003;56333;51.306;17.056;2023-06-10T08:10:57;22.20;20.00;
69224;PMS1003;56333;51.306;17.056;2023-06-10T08:12:27;23.00;20.90;
69224;PMS1003;56333;51.306;17.056;2023-06-10T08:13:55;24.20;22.10;
69224;PMS1003;56333;51.306;17.056;2023-06-10T08:15:24;23.30;21.10;
69224;PMS1003;56333;51.306;17.056;2023-06-10T08:16:53;24.20;22.00;
69224;PMS1003;56333;51.306;17.056;2023-06-10T08:18:22;22.00;20.00;
69224;PMS1003;56333;51.306;17.056;2023-06-10T08:19:51;20.80;18.80;
69224;PMS1003;56333;51.306;17.056;2023-06-10T08:21:19;19.00;17.30;
69224;PMS1003;56333;51.306;17.056;2023-06-10T08:22:48;21.10;19.20;
69224;PMS1003;56333;51.306;17.056;2023-06-10T08:24:17;18.60;16.90;
69224;PMS1003;56333;51.306;17.056;2023-06-10T08:25:46;18.60;16.80;
69224;PMS1003;56333;51.306;17.056;2023-06-10T08:27:15;17.60;15.90;
69224;PMS1003;56333;51.306;17.056;2023-06-10T08:28:44;18.10;16.40;
69224;PMS1003;56333;51.306;17.056;2023-06-10T08:30:14;16.60;15.10;
69224;PMS1003;56333;51.306;17.056;2023-06-10T08:31:46;16.40;14.80;
69224;PMS1003;56333;51.306;17.056;2023-06-10T08:33:15;16.20;14.70;
69224;PMS1003;56333;51.306;17.056;2023-06-10T08:34:44;16.30;14.80;
69224;PMS1003;56333;51.306;17.056;2023-06-10T08:36:13;16.90;15.40;
69224;PMS1003;56333;51.306;17.056;2023-06-10T08:37:42;17.20;15.60;
69224;PMS1003;56333;51.306;17.056;2023-06-10T08:39:11;17.70;16.10;
69224;PMS1003;56333;51.306;17.056;2023-06-10T08:40:41;16.90;15.20;
69224;PMS1003;56333;51.306;17.056;2023-06-10T08:42:23;17.10;15.50;
69224;PMS1003;56333;51.306;17.056;2023-06-10T08:44:02;18.10;16.50;
69224;PMS1003;56333;51.306;17.056;2023-06-10T08:45:36;18.10;16.30;
69224;PMS1003;56333;51.306;17.056;2023-06-10T08:47:09;17.70;16.00;
69224;PMS1003;56333;51.306;17.056;2023-06-10T08:48:45;18.70;16.90;
69224;PMS1003;56333;51.306;17.056;2023-06-10T08:50:18;18.30;16.70;
69224;PMS1003;56333;51.306;17.056;2023-06-10T08:51:49;18.00;16.30;
69224;PMS1003;56333;51.306;17.056;2023-06-10T08:53:20;18.90;17.20;
69224;PMS1003;56333;51.306;17.056;2023-06-10T08:54:54;17.90;16.30;
69224;PMS1003;56333;51.306;17.056;2023-06-10T08:56:27;16.60;15.00;
69224;PMS1003;56333;51.306;17.056;2023-06-10T08:57:56;16.40;14.90;
69224;PMS1003;56333;51.306;17.056;2023-06-10T08:59:26;15.40;14.00;
69224;PMS1003;56333;51.306;17.056;2023-06-10T09:00:56;15.50;14.00;
69224;PMS1003;56333;51.306;17.056;2023-06-10T09:02:25;14.90;13.50;
69224;PMS1003;56333;51.306;17.056;2023-06-10T09:03:55;15.90;14.40;